Time;durP1;ratioP1;P1;durP2;ratioP2;P2;SDS_P1;SDS_P2;PMS_P1;PMS_P2;Temp;Humidity;BMP_temperature;BMP_pressure;BME280_temperature;BME280_humidity;BME280_pressure;Samples;Min_cycle;Max_cycle;Signal;HPM_P1;HPM_P2
2023/08/16 00:01:58;;;;;;;8.20;5.25;;;20.30;99.90;;;;;;5039805;28;20029;-56
2023/08/16 00:04:24;;;;;;;7.25;5.55;;;20.30;99.90;;;;;;5034858;28;20021;-63
2023/08/16 00:06:49;;;;;;;5.78;5.25;;;20.30;99.90;;;;;;5041136;28;20104;-54
2023/08/16 00:09:19;;;;;;;19.38;15.90;;;20.30;99.90;;;;;;5041187;28;20026;-58
2023/08/16 00:11:45;;;;;;;8.30;7.30;;;20.30;99.90;;;;;;5007479;28;20109;-58
2023/08/16 00:14:10;;;;;;;11.35;6.03;;;20.30;99.90;;;;;;5023309;28;20116;-59
2023/08/16 00:16:36;;;;;;;9.70;6.15;;;20.20;99.90;;;;;;5041311;28;20101;-57
2023/08/16 00:19:01;;;;;;;7.60;5.32;;;20.20;99.90;;;;;;5041080;28;20021;-59
2023/08/16 00:21:27;;;;;;;5.72;4.45;;;20.20;99.90;;;;;;5041300;28;20025;-58
2023/08/16 00:23:52;;;;;;;9.25;5.05;;;20.20;99.90;;;;;;5039714;28;20036;-58
2023/08/16 00:26:18;;;;;;;6.63;5.00;;;20.20;99.90;;;;;;5039871;28;20021;-55
2023/08/16 00:28:45;;;;;;;12.27;5.80;;;20.20;99.90;;;;;;5040094;28;20459;-55
2023/08/16 00:31:11;;;;;;;10.73;5.65;;;20.20;99.90;;;;;;5040231;28;20056;-59
2023/08/16 00:33:37;;;;;;;9.43;6.22;;;20.10;99.90;;;;;;5041012;28;20041;-60
2023/08/16 00:36:02;;;;;;;9.15;6.15;;;20.10;99.90;;;;;;5040606;28;20111;-58
2023/08/16 00:38:28;;;;;;;9.07;6.63;;;20.10;99.90;;;;;;5039990;28;20378;-58
2023/08/16 00:40:53;;;;;;;7.22;6.53;;;20.00;99.90;;;;;;5039903;28;20497;-55
2023/08/16 00:43:19;;;;;;;11.73;6.10;;;20.00;99.90;;;;;;5040158;28;20029;-60
2023/08/16 00:45:47;;;;;;;9.35;6.20;;;20.00;99.90;;;;;;5040529;28;20411;-57
2023/08/16 00:48:13;;;;;;;6.53;5.35;;;19.90;99.90;;;;;;5039641;28;20057;-57
2023/08/16 00:50:39;;;;;;;6.50;4.80;;;19.90;99.90;;;;;;5039532;28;20036;-57
2023/08/16 00:53:06;;;;;;;6.20;5.10;;;19.80;99.90;;;;;;5040672;28;20029;-57
2023/08/16 00:55:33;;;;;;;6.68;6.07;;;19.80;99.90;;;;;;5040721;28;20029;-59
2023/08/16 00:57:59;;;;;;;6.40;5.90;;;19.80;99.90;;;;;;5041197;28;20515;-57
2023/08/16 01:00:25;;;;;;;8.50;6.65;;;19.80;99.90;;;;;;5040227;28;20081;-58
2023/08/16 01:02:50;;;;;;;9.02;7.00;;;19.80;99.90;;;;;;5040501;28;20064;-58
2023/08/16 01:05:16;;;;;;;8.32;6.43;;;19.80;99.90;;;;;;5040369;28;20072;-60
2023/08/16 01:07:42;;;;;;;8.73;6.90;;;19.80;99.90;;;;;;5040021;28;20029;-55
2023/08/16 01:10:08;;;;;;;50.75;7.68;;;19.80;99.90;;;;;;5040435;28;20032;-56
2023/08/16 01:12:49;;;;;;;33.30;7.75;;;19.80;99.90;;;;;;5022853;28;20120;-57
2023/08/16 01:15:21;;;;;;;103.90;10.25;;;19.80;99.90;;;;;;5040892;28;20048;-57
2023/08/16 01:17:50;;;;;;;71.47;9.77;;;19.80;99.90;;;;;;5039850;28;20097;-60
2023/08/16 01:20:16;;;;;;;44.70;10.82;;;19.80;99.90;;;;;;5022526;28;20093;-60
2023/08/16 01:23:03;;;;;;;30.73;10.27;;;19.80;99.90;;;;;;5022712;28;20045;-54
2023/08/16 01:25:56;;;;;;;36.50;11.95;;;19.80;99.90;;;;;;5039726;28;20092;-58
2023/08/16 01:28:22;;;;;;;20.83;9.93;;;19.90;99.90;;;;;;5040068;28;20400;-58
2023/08/16 01:30:49;;;;;;;21.13;10.57;;;19.90;99.90;;;;;;5039494;28;20021;-56
2023/08/16 01:33:14;;;;;;;54.75;11.48;;;19.80;99.90;;;;;;5039996;28;20037;-56
2023/08/16 01:35:40;;;;;;;56.40;10.65;;;19.70;99.90;;;;;;5039957;28;20021;-56
2023/08/16 01:38:10;;;;;;;51.55;11.30;;;19.70;99.90;;;;;;5039149;28;20022;-54
2023/08/16 01:41:01;;;;;;;34.88;10.48;;;19.70;99.90;;;;;;5039058;28;20018;-55
2023/08/16 01:43:28;;;;;;;25.48;10.75;;;19.60;99.90;;;;;;5039294;28;20527;-56
2023/08/16 01:45:54;;;;;;;16.20;10.40;;;19.60;99.90;;;;;;5039472;28;20036;-54
2023/08/16 01:48:22;;;;;;;17.25;11.45;;;19.60;99.90;;;;;;5038246;28;20029;-57
2023/08/16 01:50:47;;;;;;;18.25;11.65;;;19.60;99.90;;;;;;5036332;28;20108;-59
2023/08/16 01:53:13;;;;;;;16.85;11.98;;;19.50;99.90;;;;;;5037953;28;20049;-58
2023/08/16 01:55:39;;;;;;;19.83;11.15;;;19.50;99.90;;;;;;5040267;28;20029;-56
2023/08/16 01:58:05;;;;;;;17.70;10.15;;;19.50;99.90;;;;;;5040184;28;20056;-59
2023/08/16 02:00:31;;;;;;;16.50;10.70;;;19.60;99.90;;;;;;5039653;28;20022;-57
2023/08/16 02:02:56;;;;;;;20.08;12.02;;;19.60;99.90;;;;;;5022453;28;20025;-54
2023/08/16 02:05:22;;;;;;;23.48;10.63;;;19.60;99.90;;;;;;5038638;28;20100;-56
2023/08/16 02:07:47;;;;;;;29.77;9.05;;;19.60;99.90;;;;;;5040131;28;20052;-57
2023/08/16 02:10:13;;;;;;;20.70;10.73;;;19.50;99.90;;;;;;5039435;28;20473;-55
2023/08/16 02:12:38;;;;;;;24.27;9.50;;;19.50;99.90;;;;;;5039213;28;20113;-60
2023/08/16 02:15:04;;;;;;;24.35;9.13;;;19.50;99.90;;;;;;5022562;28;20022;-54
2023/08/16 02:17:30;;;;;;;11.45;9.07;;;19.40;99.90;;;;;;5039442;28;20021;-51
2023/08/16 02:19:55;;;;;;;15.13;10.15;;;19.40;99.90;;;;;;5039220;28;20032;-55
2023/08/16 02:22:21;;;;;;;10.80;9.73;;;19.40;99.90;;;;;;5039675;28;20346;-57
2023/08/16 02:24:46;;;;;;;22.20;10.27;;;19.40;99.90;;;;;;5040360;28;20029;-56
2023/08/16 02:27:12;;;;;;;10.70;8.73;;;19.30;99.90;;;;;;5022352;28;20128;-54
2023/08/16 02:29:37;;;;;;;15.02;9.25;;;19.20;99.90;;;;;;5039549;28;20033;-56
2023/08/16 02:32:03;;;;;;;24.33;9.57;;;19.20;99.90;;;;;;5039519;28;20033;-53
2023/08/16 02:34:29;;;;;;;40.33;11.32;;;19.20;99.90;;;;;;5040343;28;20312;-54
2023/08/16 02:36:54;;;;;;;22.98;10.77;;;19.20;99.90;;;;;;5040818;28;20408;-57
2023/08/16 02:39:20;;;;;;;31.83;9.77;;;19.30;99.90;;;;;;5040132;28;20044;-57
2023/08/16 02:41:45;;;;;;;31.88;10.98;;;19.20;99.90;;;;;;5040084;28;20026;-56
2023/08/16 02:44:11;;;;;;;42.35;10.98;;;19.20;99.90;;;;;;5039035;28;20029;-54
2023/08/16 02:46:37;;;;;;;65.80;11.63;;;19.10;99.90;;;;;;5022437;28;20028;-53
2023/08/16 02:49:02;;;;;;;31.58;10.75;;;19.10;99.90;;;;;;5040712;28;20037;-58
2023/08/16 02:51:28;;;;;;;49.13;11.68;;;19.00;99.90;;;;;;5040668;28;20048;-57
2023/08/16 02:53:53;;;;;;;42.85;13.65;;;19.10;99.90;;;;;;5023627;28;20022;-52
2023/08/16 02:56:19;;;;;;;57.95;15.10;;;19.00;99.90;;;;;;5041069;28;20045;-56
2023/08/16 02:58:44;;;;;;;87.97;15.40;;;19.10;99.90;;;;;;5040395;28;20048;-56
2023/08/16 03:01:10;;;;;;;68.22;14.07;;;19.20;99.90;;;;;;5040722;28;20021;-56
2023/08/16 03:03:35;;;;;;;87.93;15.23;;;19.90;99.90;;;;;;5040535;28;20037;-56
2023/08/16 03:06:01;;;;;;;88.53;16.60;;;19.20;99.90;;;;;;5040651;28;20506;-56
2023/08/16 03:08:26;;;;;;;42.85;16.27;;;19.30;99.90;;;;;;5022515;28;20026;-59
2023/08/16 03:10:52;;;;;;;60.25;16.88;;;19.30;99.90;;;;;;5021786;28;20031;-57
2023/08/16 03:13:17;;;;;;;109.60;16.88;;;19.30;99.90;;;;;;5039536;28;20088;-60
2023/08/16 03:15:43;;;;;;;112.85;17.13;;;19.30;99.90;;;;;;5039937;28;20095;-59
2023/08/16 03:18:09;;;;;;;91.13;16.35;;;19.40;99.90;;;;;;5039176;28;20034;-58
2023/08/16 03:20:34;;;;;;;113.70;17.73;;;19.40;99.90;;;;;;5039347;28;20024;-55
2023/08/16 03:23:00;;;;;;;60.97;15.43;;;19.40;99.90;;;;;;5040312;28;20026;-58
2023/08/16 03:25:25;;;;;;;73.35;15.82;;;19.30;99.90;;;;;;5042524;28;20030;-59
2023/08/16 03:27:51;;;;;;;91.72;16.20;;;19.30;99.90;;;;;;5043302;28;20022;-56
2023/08/16 03:30:16;;;;;;;70.00;17.00;;;19.30;99.90;;;;;;5042633;28;20045;-53
2023/08/16 03:32:42;;;;;;;62.55;16.70;;;19.30;99.90;;;;;;5042489;28;20084;-55
2023/08/16 03:35:08;;;;;;;41.42;15.15;;;19.30;99.90;;;;;;5042787;28;20100;-57
2023/08/16 03:37:33;;;;;;;45.95;15.20;;;19.30;99.90;;;;;;5043681;28;20041;-60
2023/08/16 03:39:59;;;;;;;72.90;15.90;;;19.30;99.90;;;;;;5042527;28;20567;-57
2023/08/16 03:42:24;;;;;;;70.28;15.10;;;19.30;99.90;;;;;;5042070;28;20400;-60
2023/08/16 03:44:50;;;;;;;65.95;16.40;;;19.30;99.90;;;;;;5042707;28;20022;-54
2023/08/16 03:47:15;;;;;;;21.98;12.65;;;19.30;99.90;;;;;;5023999;28;20495;-58
2023/08/16 03:49:43;;;;;;;21.50;12.68;;;19.30;99.90;;;;;;5023940;28;20040;-56
2023/08/16 03:52:09;;;;;;;29.27;13.38;;;19.20;99.90;;;;;;5041903;28;20036;-58
2023/08/16 03:54:35;;;;;;;20.17;12.48;;;19.20;99.90;;;;;;5042766;28;20116;-54
2023/08/16 03:57:00;;;;;;;20.48;12.55;;;19.20;99.90;;;;;;5026021;28;20030;-55
2023/08/16 03:59:26;;;;;;;22.73;12.68;;;19.30;99.90;;;;;;5025287;28;20029;-53
2023/08/16 04:01:51;;;;;;;24.88;13.98;;;19.30;99.90;;;;;;5042933;28;20030;-54
2023/08/16 04:04:17;;;;;;;24.85;13.32;;;19.30;99.90;;;;;;5043194;28;20025;-54
2023/08/16 04:06:43;;;;;;;21.88;13.85;;;19.30;99.90;;;;;;5042764;28;20033;-54
2023/08/16 04:09:08;;;;;;;32.53;15.05;;;19.40;99.90;;;;;;5042781;28;20052;-54
2023/08/16 04:11:34;;;;;;;26.58;13.50;;;19.50;99.90;;;;;;5043412;28;20029;-59
2023/08/16 04:13:59;;;;;;;28.40;13.93;;;19.50;99.90;;;;;;5042745;28;20036;-58
2023/08/16 04:16:25;;;;;;;24.95;13.93;;;19.40;99.90;;;;;;5025131;28;20052;-58
2023/08/16 04:18:53;;;;;;;25.23;12.70;;;19.40;99.90;;;;;;5042569;28;20037;-55
2023/08/16 04:21:19;;;;;;;28.73;13.93;;;19.40;99.90;;;;;;5043155;28;20040;-58
2023/08/16 04:23:44;;;;;;;34.28;14.32;;;19.40;99.90;;;;;;5042573;28;20021;-57
2023/08/16 04:26:10;;;;;;;33.00;14.35;;;19.30;99.90;;;;;;5041954;28;20040;-59
2023/08/16 04:28:35;;;;;;;37.70;13.77;;;19.30;99.90;;;;;;5024443;28;20029;-58
2023/08/16 04:31:01;;;;;;;43.40;15.40;;;19.30;99.90;;;;;;5042294;28;20025;-55
2023/08/16 04:33:27;;;;;;;28.85;15.10;;;19.40;99.90;;;;;;5041622;28;20404;-60
2023/08/16 04:35:52;;;;;;;27.83;14.02;;;19.30;99.90;;;;;;5040887;28;20064;-58
2023/08/16 04:38:18;;;;;;;25.90;13.48;;;19.30;99.90;;;;;;5041452;28;20025;-57
2023/08/16 04:40:43;;;;;;;24.48;12.40;;;19.30;99.90;;;;;;5041437;28;20026;-55
2023/08/16 04:43:09;;;;;;;29.63;14.25;;;19.30;99.90;;;;;;5024276;28;20263;-56
2023/08/16 04:45:35;;;;;;;27.50;12.65;;;19.20;99.90;;;;;;5041856;28;20029;-58
2023/08/16 04:48:00;;;;;;;50.45;12.68;;;19.30;99.90;;;;;;5041156;28;20029;-57
2023/08/16 04:50:26;;;;;;;27.13;12.75;;;19.40;99.90;;;;;;5040714;28;20105;-58
2023/08/16 04:52:52;;;;;;;31.77;13.43;;;19.40;99.90;;;;;;5041651;28;20037;-57
2023/08/16 04:55:18;;;;;;;25.52;13.05;;;19.40;99.90;;;;;;5041464;28;20021;-57
2023/08/16 04:57:43;;;;;;;33.53;12.65;;;19.50;99.90;;;;;;5041753;28;20032;-55
2023/08/16 05:00:10;;;;;;;38.15;12.43;;;19.60;99.90;;;;;;5023035;28;20022;-58
2023/08/16 05:02:35;;;;;;;26.10;13.02;;;19.60;99.90;;;;;;5041266;28;20485;-57
2023/08/16 05:05:01;;;;;;;27.00;13.23;;;19.60;99.90;;;;;;5040458;28;20029;-56
2023/08/16 05:07:26;;;;;;;37.70;12.35;;;19.60;99.90;;;;;;5040733;28;20029;-55
2023/08/16 05:09:52;;;;;;;31.73;12.25;;;19.60;99.90;;;;;;5040708;28;20440;-55
2023/08/16 05:12:17;;;;;;;29.60;11.73;;;19.50;99.90;;;;;;5040851;28;20021;-58
2023/08/16 05:14:43;;;;;;;21.08;10.93;;;19.50;99.90;;;;;;5041062;28;20033;-60
2023/08/16 05:17:08;;;;;;;35.28;11.90;;;19.50;99.90;;;;;;5040516;28;20029;-54
2023/08/16 05:19:34;;;;;;;20.02;11.82;;;19.60;99.90;;;;;;5040015;28;20101;-57
2023/08/16 05:22:00;;;;;;;18.63;11.32;;;19.60;99.90;;;;;;5040304;28;20017;-58
2023/08/16 05:24:25;;;;;;;18.33;11.32;;;19.60;99.90;;;;;;5039817;28;20037;-57
2023/08/16 05:26:51;;;;;;;15.45;10.55;;;19.50;99.90;;;;;;5040051;28;20031;-52
2023/08/16 05:29:16;;;;;;;14.43;11.52;;;19.50;99.90;;;;;;5039536;28;20037;-54
2023/08/16 05:31:43;;;;;;;15.82;10.88;;;19.50;99.90;;;;;;5040022;28;20075;-55
2023/08/16 05:34:09;;;;;;;18.55;10.90;;;19.50;99.90;;;;;;5039830;28;20040;-56
2023/08/16 05:36:48;;;;;;;16.42;11.00;;;19.50;99.90;;;;;;5039419;28;20026;-57
2023/08/16 05:39:14;;;;;;;20.08;11.32;;;19.50;99.90;;;;;;5037269;28;20116;-57
2023/08/16 05:41:40;;;;;;;13.40;10.57;;;19.60;99.90;;;;;;5038216;28;20155;-57
2023/08/16 05:44:06;;;;;;;18.17;12.23;;;19.60;99.90;;;;;;5022650;28;20018;-60
2023/08/16 05:46:31;;;;;;;20.10;13.05;;;19.60;99.90;;;;;;5039087;28;20527;-58
2023/08/16 05:48:57;;;;;;;25.63;13.13;;;19.70;99.90;;;;;;5040215;28;20433;-55
2023/08/16 05:51:22;;;;;;;21.65;14.23;;;19.70;99.90;;;;;;5039497;28;20034;-56
2023/08/16 05:53:48;;;;;;;23.08;16.10;;;19.60;99.90;;;;;;5039899;28;20370;-55
2023/08/16 05:56:13;;;;;;;25.63;16.10;;;19.70;99.90;;;;;;5040296;28;20056;-55
2023/08/16 05:58:39;;;;;;;26.40;17.27;;;19.70;99.90;;;;;;5040014;28;20096;-56
2023/08/16 06:01:04;;;;;;;31.75;18.35;;;19.70;99.90;;;;;;5039785;28;20068;-58
2023/08/16 06:03:30;;;;;;;32.58;16.73;;;19.70;99.90;;;;;;5021969;28;20185;-56
2023/08/16 06:05:56;;;;;;;24.67;15.93;;;19.80;99.90;;;;;;5041352;28;20021;-56
2023/08/16 06:08:21;;;;;;;34.92;16.60;;;19.80;99.90;;;;;;5040388;28;20038;-57
2023/08/16 06:10:47;;;;;;;32.65;17.95;;;19.80;99.90;;;;;;5039535;28;20037;-56
2023/08/16 06:13:12;;;;;;;34.95;19.17;;;19.80;99.90;;;;;;5040457;28;20044;-54
2023/08/16 06:15:38;;;;;;;47.72;21.35;;;19.80;99.90;;;;;;5040173;28;20030;-59
2023/08/16 06:18:03;;;;;;;52.25;21.75;;;19.80;99.90;;;;;;5040083;28;20025;-59
2023/08/16 06:20:29;;;;;;;57.08;24.70;;;19.80;99.90;;;;;;5040202;28;20405;-60
2023/08/16 06:22:54;;;;;;;58.85;23.67;;;19.80;99.90;;;;;;5040651;28;20085;-57
2023/08/16 06:25:20;;;;;;;62.90;24.98;;;19.80;99.90;;;;;;5040234;28;20024;-56
2023/08/16 06:27:46;;;;;;;62.22;23.77;;;19.70;99.90;;;;;;5022763;28;20162;-56
2023/08/16 06:30:12;;;;;;;70.60;24.50;;;19.80;99.90;;;;;;5039591;28;20032;-55
2023/08/16 06:32:37;;;;;;;70.63;23.98;;;19.80;99.90;;;;;;5040215;28;20088;-58
2023/08/16 06:35:05;;;;;;;65.97;23.90;;;19.90;99.90;;;;;;5022803;28;20348;-57
2023/08/16 06:37:31;;;;;;;57.15;23.20;;;20.10;99.90;;;;;;5021759;28;20036;-57
2023/08/16 06:39:56;;;;;;;70.57;25.35;;;20.10;99.90;;;;;;5039521;28;20481;-54
2023/08/16 06:42:22;;;;;;;69.90;24.02;;;20.20;99.90;;;;;;5039708;28;20026;-55
2023/08/16 06:44:47;;;;;;;53.75;23.55;;;20.30;99.90;;;;;;5039193;28;20053;-57
2023/08/16 06:47:13;;;;;;;61.53;22.35;;;20.50;99.90;;;;;;5038343;28;20156;-58
2023/08/16 06:49:38;;;;;;;57.92;23.65;;;20.60;99.90;;;;;;5038989;28;20032;-57
2023/08/16 06:52:04;;;;;;;56.92;22.90;;;20.50;99.90;;;;;;5038035;28;20030;-57
2023/08/16 06:54:30;;;;;;;66.80;24.95;;;20.70;99.90;;;;;;5038312;28;20349;-58
2023/08/16 06:56:57;;;;;;;47.05;20.08;;;20.80;99.90;;;;;;5019808;28;20485;-58
2023/08/16 06:59:24;;;;;;;57.03;22.85;;;21.00;99.90;;;;;;5041550;28;20091;-58
2023/08/16 07:01:50;;;;;;;49.15;21.42;;;21.10;99.90;;;;;;5041975;28;20013;-56
2023/08/16 07:04:15;;;;;;;48.60;20.73;;;21.30;99.90;;;;;;5041634;28;20032;-57
2023/08/16 07:06:41;;;;;;;48.35;20.52;;;21.30;99.90;;;;;;5042125;28;20025;-56
2023/08/16 07:09:06;;;;;;;49.75;19.40;;;21.40;99.90;;;;;;5023657;28;20515;-58
2023/08/16 07:11:32;;;;;;;40.60;17.30;;;21.40;99.90;;;;;;5040697;28;20067;-53
2023/08/16 07:13:59;;;;;;;38.38;17.33;;;21.40;99.90;;;;;;5040518;28;20025;-57
2023/08/16 07:16:25;;;;;;;42.20;17.20;;;21.40;99.90;;;;;;5040730;28;20100;-59
2023/08/16 07:18:50;;;;;;;46.40;18.02;;;21.40;99.90;;;;;;5040742;28;20076;-59
2023/08/16 07:21:17;;;;;;;38.03;18.98;;;21.40;99.90;;;;;;5040665;28;20056;-54
2023/08/16 07:23:44;;;;;;;45.90;18.23;;;21.30;99.90;;;;;;5038326;28;20181;-53
2023/08/16 07:26:10;;;;;;;42.55;18.73;;;21.40;99.90;;;;;;5032881;28;20049;-54
2023/08/16 07:28:36;;;;;;;38.10;17.23;;;21.40;99.90;;;;;;5035166;28;20440;-55
2023/08/16 07:31:01;;;;;;;41.50;17.98;;;21.50;99.90;;;;;;5024207;28;20061;-57
2023/08/16 07:33:30;;;;;;;36.30;17.48;;;21.60;99.90;;;;;;5014973;28;20528;-56
2023/08/16 07:36:02;;;;;;;36.50;17.60;;;21.70;99.90;;;;;;5015118;28;20095;-54
2023/08/16 07:38:30;;;;;;;35.10;18.48;;;21.70;99.90;;;;;;5029610;28;20022;-56
2023/08/16 07:40:56;;;;;;;30.15;15.30;;;21.90;99.90;;;;;;5036750;28;20104;-57
2023/08/16 07:43:21;;;;;;;33.10;15.98;;;22.00;99.90;;;;;;5039780;28;20500;-57
2023/08/16 07:45:52;;;;;;;35.17;15.93;;;22.40;99.90;;;;;;5034753;28;20440;-54
2023/08/16 07:48:18;;;;;;;26.08;13.25;;;22.60;99.90;;;;;;5040862;28;20029;-55
2023/08/16 07:50:45;;;;;;;35.33;16.30;;;22.70;99.90;;;;;;5041218;28;20017;-55
2023/08/16 07:53:11;;;;;;;28.65;16.15;;;22.70;99.90;;;;;;5034494;28;20029;-52
2023/08/16 07:55:37;;;;;;;29.63;15.68;;;22.70;99.90;;;;;;5037398;28;20029;-51
2023/08/16 07:58:02;;;;;;;32.08;14.32;;;22.60;99.90;;;;;;5035531;28;20037;-54
2023/08/16 08:00:29;;;;;;;26.13;15.20;;;22.70;99.90;;;;;;5015057;28;20030;-49
2023/08/16 08:02:55;;;;;;;24.67;13.57;;;22.80;99.90;;;;;;5015785;28;20018;-47
2023/08/16 08:05:21;;;;;;;23.55;13.25;;;22.90;99.90;;;;;;5034208;28;20022;-49
2023/08/16 08:07:47;;;;;;;26.52;14.82;;;22.60;99.90;;;;;;5038614;28;20025;-50
2023/08/16 08:10:14;;;;;;;24.80;12.70;;;22.60;99.90;;;;;;5037436;28;20071;-46
2023/08/16 08:12:39;;;;;;;29.17;13.23;;;22.50;99.90;;;;;;5036948;28;20033;-53
2023/08/16 08:15:05;;;;;;;22.13;12.40;;;22.60;99.90;;;;;;5039594;28;20029;-50
2023/08/16 08:17:31;;;;;;;16.83;11.98;;;22.50;99.90;;;;;;5039469;28;20409;-50
2023/08/16 08:19:56;;;;;;;21.52;12.07;;;22.50;99.90;;;;;;5039253;28;20076;-50
2023/08/16 08:22:22;;;;;;;18.25;11.93;;;22.40;99.90;;;;;;5021049;28;20032;-50
2023/08/16 08:24:47;;;;;;;19.55;10.35;;;22.40;99.90;;;;;;5021466;28;20025;-53
2023/08/16 08:27:13;;;;;;;18.95;11.63;;;22.50;99.90;;;;;;5021552;28;20022;-51
2023/08/16 08:29:40;;;;;;;19.15;11.80;;;22.70;99.90;;;;;;5040026;28;20025;-50
2023/08/16 08:32:06;;;;;;;18.58;11.07;;;22.70;99.90;;;;;;5038350;28;20033;-50
2023/08/16 08:34:32;;;;;;;20.23;12.02;;;22.80;99.90;;;;;;5038879;28;20385;-50
2023/08/16 08:36:59;;;;;;;17.00;11.57;;;23.00;99.90;;;;;;5040253;28;20036;-49
2023/08/16 08:39:26;;;;;;;18.77;11.68;;;23.20;99.90;;;;;;5041570;28;20053;-53
2023/08/16 08:41:52;;;;;;;17.65;11.55;;;23.20;99.90;;;;;;5034617;28;20531;-52
2023/08/16 08:44:21;;;;;;;20.10;11.98;;;23.20;99.90;;;;;;5023834;28;20045;-58
2023/08/16 08:46:48;;;;;;;18.75;10.80;;;23.20;99.90;;;;;;5029834;28;20014;-57
2023/08/16 08:49:19;;;;;;;13.85;9.80;;;23.50;99.90;;;;;;5047076;28;20035;-53
2023/08/16 08:51:44;;;;;;;13.02;8.57;;;24.40;99.90;;;;;;5041672;28;20033;-52
2023/08/16 08:54:11;;;;;;;13.00;8.55;;;25.30;99.90;;;;;;5033949;28;20030;-57
2023/08/16 08:56:37;;;;;;;15.27;9.10;;;25.70;99.90;;;;;;5038686;28;20083;-53
2023/08/16 08:59:03;;;;;;;11.82;7.75;;;25.50;99.90;;;;;;5033201;28;20025;-55
2023/08/16 09:01:30;;;;;;;8.93;7.47;;;25.30;99.90;;;;;;5019692;28;20021;-57
2023/08/16 09:04:00;;;;;;;13.63;9.02;;;25.30;99.90;;;;;;5040584;28;20036;-54
2023/08/16 09:06:26;;;;;;;13.20;8.65;;;25.00;99.90;;;;;;5021313;28;20022;-55
2023/08/16 09:08:52;;;;;;;11.80;7.32;;;24.90;99.90;;;;;;5001998;28;20053;-53
2023/08/16 09:11:19;;;;;;;10.40;7.30;;;25.00;99.90;;;;;;5019466;28;20040;-55
2023/08/16 09:13:45;;;;;;;12.02;8.23;;;24.90;99.90;;;;;;5020042;28;20075;-54
2023/08/16 09:16:11;;;;;;;10.70;8.48;;;24.90;99.90;;;;;;5002013;28;20112;-53
2023/08/16 09:18:36;;;;;;;15.98;12.70;;;24.50;99.90;;;;;;5036071;28;20079;-57
2023/08/16 09:21:02;;;;;;;13.95;9.40;;;24.40;99.90;;;;;;5038631;28;20055;-56
2023/08/16 09:23:28;;;;;;;17.15;8.93;;;24.50;99.90;;;;;;5044836;28;20030;-57
2023/08/16 09:25:53;;;;;;;15.85;9.43;;;24.60;99.90;;;;;;5046600;28;20036;-57
2023/08/16 09:28:20;;;;;;;15.50;7.47;;;25.00;99.90;;;;;;5047182;28;20088;-55
2023/08/16 09:30:46;;;;;;;10.15;8.38;;;25.60;99.90;;;;;;5046345;28;20484;-55
2023/08/16 09:33:17;;;;;;;10.43;7.45;;;26.00;99.90;;;;;;5045529;28;20063;-54
2023/08/16 09:35:51;;;;;;;15.20;8.18;;;26.40;99.90;;;;;;5046915;28;20089;-56
2023/08/16 09:38:20;;;;;;;10.52;7.88;;;26.70;99.90;;;;;;5047549;28;20108;-56
2023/08/16 09:40:53;;;;;;;10.38;7.53;;;26.70;99.90;;;;;;5028007;28;20029;-57
2023/08/16 09:43:19;;;;;;;11.45;8.20;;;26.50;99.90;;;;;;5026758;28;20153;-58
2023/08/16 09:45:54;;;;;;;11.98;7.38;;;26.30;99.90;;;;;;5026930;28;20033;-58
2023/08/16 09:48:24;;;;;;;10.15;7.85;;;26.20;99.90;;;;;;5008764;28;20064;-54
2023/08/16 09:50:49;;;;;;;14.57;8.05;;;26.10;99.90;;;;;;5026255;28;20030;-58
2023/08/16 09:53:15;;;;;;;11.52;7.90;;;26.00;99.90;;;;;;5045507;28;20041;-58
2023/08/16 09:55:44;;;;;;;11.75;7.43;;;26.20;99.90;;;;;;5045726;28;20029;-59
2023/08/16 09:58:11;;;;;;;11.15;6.28;;;26.10;99.90;;;;;;5045353;28;20029;-57
2023/08/16 10:00:37;;;;;;;8.32;6.18;;;26.20;99.90;;;;;;5027320;28;20505;-57
2023/08/16 10:03:04;;;;;;;10.50;5.97;;;26.40;99.90;;;;;;5044538;28;20036;-55
2023/08/16 10:05:30;;;;;;;9.10;5.85;;;26.60;99.90;;;;;;5047121;28;20025;-58
2023/08/16 10:08:00;;;;;;;6.32;5.20;;;26.70;99.90;;;;;;5047132;28;20052;-57
2023/08/16 10:10:26;;;;;;;8.57;5.50;;;26.50;99.90;;;;;;5047731;28;20059;-54
2023/08/16 10:12:52;;;;;;;6.20;5.60;;;26.50;99.90;;;;;;5029893;28;20021;-55
2023/08/16 10:15:17;;;;;;;11.48;5.75;;;26.40;99.90;;;;;;5047902;28;20446;-58
2023/08/16 10:17:43;;;;;;;43.90;33.45;;;26.50;99.90;;;;;;5046578;28;20037;-52
2023/08/16 10:20:24;;;;;;;26.88;20.55;;;26.60;99.90;;;;;;5029118;28;20026;-58
2023/08/16 10:22:56;;;;;;;11.25;8.02;;;26.70;99.90;;;;;;5046030;28;20017;-57
2023/08/16 10:25:25;;;;;;;7.85;5.05;;;26.90;99.90;;;;;;5045444;28;20045;-56
2023/08/16 10:27:54;;;;;;;5.43;4.78;;;27.10;99.90;;;;;;5027519;28;20025;-58
2023/08/16 10:30:24;;;;;;;4.82;4.20;;;27.30;99.90;;;;;;5044411;28;20071;-58
2023/08/16 10:33:07;;;;;;;7.40;5.50;;;27.40;99.90;;;;;;5044640;28;20481;-58
2023/08/16 10:35:34;;;;;;;5.72;5.03;;;27.50;99.90;;;;;;5045424;28;20032;-58
2023/08/16 10:38:00;;;;;;;8.88;5.20;;;27.50;99.90;;;;;;5044991;28;20500;-56
2023/08/16 10:40:25;;;;;;;6.90;5.90;;;27.60;99.90;;;;;;5044635;28;20029;-58
2023/08/16 10:42:53;;;;;;;11.18;5.90;;;27.80;99.90;;;;;;5034412;28;20042;-58
2023/08/16 10:45:25;;;;;;;9.55;5.50;;;27.70;99.90;;;;;;5030568;28;20096;-53
2023/08/16 10:47:51;;;;;;;9.45;6.38;;;27.60;99.90;;;;;;5031455;28;20396;-55
2023/08/16 10:50:17;;;;;;;7.45;5.85;;;27.50;99.90;;;;;;5031517;28;20030;-48
2023/08/16 10:52:43;;;;;;;6.38;5.20;;;27.40;99.90;;;;;;5030677;28;20622;-48
2023/08/16 10:55:09;;;;;;;7.32;5.50;;;27.40;99.90;;;;;;5025627;28;20105;-57
2023/08/16 10:57:34;;;;;;;8.18;5.00;;;27.40;99.90;;;;;;5027177;28;20401;-58
2023/08/16 11:00:09;;;;;;;7.20;4.63;;;27.50;99.90;;;;;;5030341;28;20028;-59
2023/08/16 11:02:40;;;;;;;4.75;4.35;;;27.50;99.90;;;;;;5030969;28;20444;-58
2023/08/16 11:05:15;;;;;;;7.07;3.92;;;27.60;99.90;;;;;;5028902;28;20503;-57
2023/08/16 11:07:44;;;;;;;6.15;4.15;;;27.70;99.90;;;;;;5030226;28;20045;-58
2023/08/16 11:10:10;;;;;;;3.63;3.33;;;27.70;99.90;;;;;;5031224;28;20461;-58
2023/08/16 11:12:35;;;;;;;5.50;3.75;;;27.70;99.90;;;;;;5031345;28;20053;-57
2023/08/16 11:15:02;;;;;;;5.55;5.05;;;27.70;99.90;;;;;;5030696;28;20083;-59
2023/08/16 11:17:28;;;;;;;7.07;5.25;;;27.60;99.90;;;;;;5031039;28;20032;-60
2023/08/16 11:19:55;;;;;;;5.13;4.57;;;27.50;99.90;;;;;;5030699;28;20022;-60
2023/08/16 11:22:21;;;;;;;7.03;5.25;;;27.50;99.90;;;;;;5030956;28;20400;-60
2023/08/16 11:24:47;;;;;;;7.63;4.85;;;27.60;99.90;;;;;;5030432;28;20018;-54
2023/08/16 11:27:18;;;;;;;5.32;4.82;;;27.70;99.90;;;;;;5023890;28;20029;-55
2023/08/16 11:29:59;;;;;;;6.25;4.85;;;27.80;99.90;;;;;;5027209;28;20088;-55
2023/08/16 11:32:37;;;;;;;8.15;4.15;;;27.80;99.90;;;;;;5030556;28;20397;-53
2023/08/16 11:35:11;;;;;;;6.57;4.25;;;27.50;99.90;;;;;;5030796;28;20022;-56
2023/08/16 11:37:41;;;;;;;3.88;3.53;;;27.50;99.90;;;;;;5030787;28;20033;-56
2023/08/16 11:40:09;;;;;;;3.80;3.50;;;27.50;99.90;;;;;;5030544;28;20152;-55
2023/08/16 11:42:35;;;;;;;5.72;3.70;;;27.60;99.90;;;;;;5030449;28;20044;-56
2023/08/16 11:45:01;;;;;;;3.53;3.20;;;27.40;99.90;;;;;;5033206;28;20485;-52
2023/08/16 11:47:27;;;;;;;4.93;3.78;;;27.40;99.90;;;;;;5034457;28;20033;-49
2023/08/16 11:49:52;;;;;;;4.97;3.40;;;27.40;99.90;;;;;;5033766;28;20026;-52
2023/08/16 11:52:21;;;;;;;4.65;3.78;;;27.40;99.90;;;;;;5034359;28;20083;-52
2023/08/16 11:54:48;;;;;;;3.38;3.08;;;27.50;99.90;;;;;;5034224;28;20501;-53
2023/08/16 11:57:20;;;;;;;10.05;3.75;;;27.70;99.90;;;;;;5033103;28;20056;-55
2023/08/16 11:59:56;;;;;;;7.00;3.55;;;27.80;99.90;;;;;;5033850;28;20539;-51
2023/08/16 12:02:23;;;;;;;4.85;3.67;;;27.70;99.90;;;;;;5028659;28;20026;-50
2023/08/16 12:04:49;;;;;;;5.25;3.97;;;27.70;99.90;;;;;;5014283;28;20018;-52
2023/08/16 12:07:15;;;;;;;10.98;3.80;;;27.80;99.90;;;;;;5014826;28;20022;-52
2023/08/16 12:09:41;;;;;;;23.25;18.33;;;27.80;99.90;;;;;;5016113;28;20026;-49
2023/08/16 12:12:08;;;;;;;26.13;20.70;;;27.80;99.90;;;;;;5029627;28;20025;-54
2023/08/16 12:14:33;;;;;;;19.73;15.35;;;27.80;99.90;;;;;;5016367;28;20452;-50
2023/08/16 12:16:59;;;;;;;4.53;3.78;;;27.80;99.90;;;;;;5019311;28;20049;-52
2023/08/16 12:19:25;;;;;;;3.40;3.00;;;27.80;99.90;;;;;;5035411;28;20060;-55
2023/08/16 12:21:52;;;;;;;4.10;3.45;;;27.80;99.90;;;;;;5021540;28;20029;-53
2023/08/16 12:24:17;;;;;;;3.78;3.30;;;27.80;99.90;;;;;;5021865;28;20025;-53
2023/08/16 12:26:43;;;;;;;4.95;3.20;;;27.80;99.90;;;;;;5022183;28;20029;-51
2023/08/16 12:29:09;;;;;;;6.43;3.00;;;27.80;99.90;;;;;;5039580;28;20086;-59
2023/08/16 12:31:34;;;;;;;3.70;3.13;;;27.70;99.90;;;;;;5039178;28;20025;-57